Time;durP1;ratioP1;P1;durP2;ratioP2;P2;SDS_P1;SDS_P2;PMS_P1;PMS_P2;Temp;Humidity;BMP_temperature;BMP_pressure;BME280_temperature;BME280_humidity;BME280_pressure;Samples;Min_cycle;Max_cycle;Signal;HPM_P1;HPM_P2
2022/12/07 00:01:40;;;;;;;14.73;9.82;;;6.70;99.90;;;;;;5030047;28;20124;-86
2022/12/07 00:04:08;;;;;;;11.95;8.85;;;6.70;99.90;;;;;;5013566;28;20033;-86
2022/12/07 00:06:36;;;;;;;13.43;9.13;;;6.70;99.90;;;;;;5013356;28;20055;-86
2022/12/07 00:09:03;;;;;;;13.52;8.95;;;6.70;99.90;;;;;;5029591;28;20535;-86
2022/12/07 00:11:33;;;;;;;12.65;8.40;;;6.70;99.90;;;;;;5013192;28;20037;-86
2022/12/07 00:14:03;;;;;;;12.75;8.77;;;6.60;99.90;;;;;;5013254;28;20033;-86
2022/12/07 00:16:31;;;;;;;13.15;9.30;;;6.60;99.90;;;;;;5030189;28;20101;-87
2022/12/07 00:18:58;;;;;;;15.25;9.63;;;6.60;99.90;;;;;;5029794;28;20030;-87
2022/12/07 00:21:29;;;;;;;13.05;9.43;;;6.60;99.90;;;;;;5029760;28;20022;-87
2022/12/07 00:23:56;;;;;;;13.95;9.43;;;6.60;99.90;;;;;;5014343;28;20043;-87
2022/12/07 00:26:28;;;;;;;15.15;9.15;;;6.50;99.90;;;;;;5029797;28;20374;-87
2022/12/07 00:28:59;;;;;;;12.68;8.57;;;6.50;99.90;;;;;;5029849;28;20033;-87
2022/12/07 00:31:28;;;;;;;14.43;9.27;;;6.50;99.90;;;;;;5029493;28;20068;-87
2022/12/07 00:33:54;;;;;;;13.05;9.00;;;6.40;99.90;;;;;;5013197;28;20026;-86
2022/12/07 00:36:24;;;;;;;13.20;9.00;;;6.40;99.90;;;;;;5029469;28;20022;-87
2022/12/07 00:38:49;;;;;;;12.05;9.23;;;6.40;99.90;;;;;;5029478;28;20018;-86
2022/12/07 00:41:18;;;;;;;14.73;9.05;;;6.40;99.90;;;;;;5012232;28;20061;-87
2022/12/07 00:43:46;;;;;;;14.18;9.13;;;6.40;99.90;;;;;;5029248;28;20037;-86
2022/12/07 00:46:12;;;;;;;12.80;8.48;;;6.40;99.90;;;;;;5029180;28;20026;-87
2022/12/07 00:48:39;;;;;;;11.27;8.57;;;6.30;99.90;;;;;;5029068;28;20503;-86
2022/12/07 00:51:05;;;;;;;12.85;9.07;;;6.30;99.90;;;;;;5013873;28;20030;-86
2022/12/07 00:53:34;;;;;;;14.65;9.23;;;6.30;99.90;;;;;;5012723;28;20496;-87
2022/12/07 00:56:08;;;;;;;11.80;8.30;;;6.30;99.90;;;;;;5012811;28;20030;-87
2022/12/07 00:58:34;;;;;;;13.30;9.52;;;6.30;99.90;;;;;;5014789;28;20510;-87
2022/12/07 01:01:02;;;;;;;12.25;8.77;;;6.20;99.90;;;;;;5016639;28;20069;-87
2022/12/07 01:03:28;;;;;;;13.13;9.13;;;6.20;99.90;;;;;;5032979;28;20026;-87
2022/12/07 01:05:55;;;;;;;14.00;9.23;;;6.20;99.90;;;;;;5016400;28;20037;-87
2022/12/07 01:08:22;;;;;;;12.35;8.27;;;6.20;99.90;;;;;;5018164;28;20097;-87
2022/12/07 01:10:48;;;;;;;10.57;8.40;;;6.10;99.90;;;;;;5017384;28;20406;-84
2022/12/07 01:13:14;;;;;;;13.98;7.90;;;6.10;99.90;;;;;;5016163;28;20057;-84
2022/12/07 01:15:42;;;;;;;12.77;9.02;;;6.10;99.90;;;;;;5032285;28;20064;-84
2022/12/07 01:18:07;;;;;;;11.50;8.27;;;6.10;99.90;;;;;;5032523;28;20137;-84
2022/12/07 01:20:34;;;;;;;11.40;8.98;;;6.10;99.90;;;;;;5015828;28;20128;-84
2022/12/07 01:22:59;;;;;;;12.38;8.18;;;6.00;99.90;;;;;;5016093;28;20034;-84
2022/12/07 01:25:25;;;;;;;13.23;8.32;;;6.00;99.90;;;;;;5015862;28;20099;-84
2022/12/07 01:27:51;;;;;;;11.45;8.40;;;6.00;99.90;;;;;;5016062;28;20065;-86
2022/12/07 01:30:18;;;;;;;14.32;8.98;;;6.00;99.90;;;;;;5032547;28;20113;-87
2022/12/07 01:32:43;;;;;;;13.32;8.70;;;5.90;99.90;;;;;;5032731;28;20022;-86
2022/12/07 01:35:09;;;;;;;11.90;8.30;;;6.00;99.90;;;;;;5032336;28;20029;-87
2022/12/07 01:37:37;;;;;;;13.10;8.32;;;5.90;99.90;;;;;;5015951;28;20026;-86
2022/12/07 01:40:06;;;;;;;13.63;7.88;;;5.90;99.90;;;;;;5032000;28;20042;-87
2022/12/07 01:42:33;;;;;;;9.65;7.72;;;5.90;99.90;;;;;;5032474;28;20032;-87
2022/12/07 01:45:17;;;;;;;12.95;8.48;;;5.80;99.90;;;;;;5016030;28;20045;-87
2022/12/07 01:47:48;;;;;;;10.80;7.72;;;5.80;99.90;;;;;;5032156;28;20356;-87
2022/12/07 01:50:14;;;;;;;12.20;8.13;;;5.80;99.90;;;;;;5016835;28;20040;-87
2022/12/07 01:52:44;;;;;;;12.68;9.30;;;5.80;99.90;;;;;;5032212;28;20026;-87
2022/12/07 01:55:13;;;;;;;12.65;7.72;;;5.80;99.90;;;;;;5033764;28;20014;-87
2022/12/07 01:57:43;;;;;;;12.27;7.90;;;5.70;99.90;;;;;;5034510;28;20113;-87
2022/12/07 02:00:10;;;;;;;12.70;8.23;;;5.70;99.90;;;;;;5018438;28;20032;-84
2022/12/07 02:02:58;;;;;;;11.75;8.32;;;5.70;99.90;;;;;;5031761;28;20033;-84
2022/12/07 02:05:26;;;;;;;12.13;8.40;;;5.70;99.90;;;;;;5008123;28;20038;-84
2022/12/07 02:07:54;;;;;;;16.60;8.30;;;5.70;99.90;;;;;;5015300;28;20033;-84
2022/12/07 02:10:27;;;;;;;15.13;7.72;;;5.70;99.90;;;;;;5015121;28;20054;-84
2022/12/07 02:13:19;;;;;;;12.60;7.32;;;5.60;99.90;;;;;;5031576;28;20459;-84
2022/12/07 02:15:57;;;;;;;12.25;7.10;;;5.60;99.90;;;;;;5016401;28;20022;-84
2022/12/07 02:18:31;;;;;;;10.57;7.00;;;5.50;99.90;;;;;;5032950;28;20042;-90
2022/12/07 02:21:20;;;;;;;10.40;7.25;;;5.50;99.90;;;;;;5017948;28;20033;-90
2022/12/07 02:24:22;;;;;;;11.35;6.82;;;5.50;99.90;;;;;;5033682;28;20041;-89
2022/12/07 02:27:11;;;;;;;11.23;6.95;;;5.50;99.90;;;;;;5018828;28;20030;-90
2022/12/07 02:30:03;;;;;;;8.73;6.95;;;5.40;99.90;;;;;;5010643;28;20426;-90
2022/12/07 02:32:48;;;;;;;11.77;7.05;;;5.40;99.90;;;;;;5026012;28;20399;-90
2022/12/07 02:35:25;;;;;;;11.07;7.03;;;5.40;99.90;;;;;;5016554;28;20451;-84
2022/12/07 02:38:12;;;;;;;11.43;6.88;;;5.40;99.90;;;;;;5031110;28;20085;-84
2022/12/07 02:40:52;;;;;;;11.82;6.72;;;5.40;99.90;;;;;;5030859;28;20065;-84
2022/12/07 02:43:31;;;;;;;12.95;7.50;;;5.30;99.90;;;;;;5031022;28;20022;-84
2022/12/07 02:46:08;;;;;;;12.35;6.32;;;5.30;99.90;;;;;;5031176;28;20490;-84
2022/12/07 02:48:34;;;;;;;11.23;6.20;;;5.30;99.90;;;;;;5030946;28;20026;-83
2022/12/07 02:51:00;;;;;;;15.75;6.63;;;5.30;99.90;;;;;;5015471;28;20025;-89
2022/12/07 02:53:41;;;;;;;8.63;5.82;;;5.30;99.90;;;;;;5015760;28;20121;-89
2022/12/07 02:56:12;;;;;;;10.60;6.60;;;5.30;99.90;;;;;;5034437;28;20034;-89
2022/12/07 02:58:57;;;;;;;11.60;6.63;;;5.20;99.90;;;;;;5032945;28;20045;-84
2022/12/07 03:01:52;;;;;;;11.55;6.25;;;5.20;99.90;;;;;;5030688;28;20026;-84
2022/12/07 03:04:54;;;;;;;9.75;5.75;;;5.20;99.90;;;;;;5004881;28;20058;-84
2022/12/07 03:07:29;;;;;;;9.73;5.55;;;5.20;99.90;;;;;;5030682;28;20116;-83
2022/12/07 03:10:16;;;;;;;10.30;5.82;;;5.20;99.90;;;;;;5030561;28;20033;-83
2022/12/07 03:13:09;;;;;;;11.13;6.15;;;5.20;99.90;;;;;;5030470;28;20014;-84
2022/12/07 03:15:56;;;;;;;9.23;5.63;;;5.20;99.90;;;;;;5015264;28;20444;-84
2022/12/07 03:18:24;;;;;;;11.13;5.88;;;5.20;99.90;;;;;;5015086;28;20502;-84
2022/12/07 03:20:54;;;;;;;9.38;5.40;;;5.10;99.90;;;;;;5030468;28;20034;-84
2022/12/07 03:23:23;;;;;;;11.10;5.95;;;5.20;99.90;;;;;;5029850;28;20037;-84
2022/12/07 03:25:55;;;;;;;11.85;5.60;;;5.20;99.90;;;;;;5030433;28;20036;-84
2022/12/07 03:28:24;;;;;;;12.80;5.32;;;5.10;99.90;;;;;;5030182;28;20053;-84
2022/12/07 03:30:59;;;;;;;12.82;5.53;;;5.10;99.90;;;;;;5030156;28;20022;-83
2022/12/07 03:33:49;;;;;;;14.35;5.38;;;5.10;99.90;;;;;;5030015;28;20034;-84
2022/12/07 03:36:19;;;;;;;11.70;5.40;;;5.10;99.90;;;;;;5030081;28;20026;-83
2022/12/07 03:39:16;;;;;;;13.45;5.32;;;5.10;99.90;;;;;;5029919;28;20026;-84
2022/12/07 03:41:42;;;;;;;11.40;4.82;;;5.10;99.90;;;;;;5030955;28;20054;-87
2022/12/07 03:44:09;;;;;;;12.57;4.80;;;5.10;99.90;;;;;;5030300;28;20064;-87
2022/12/07 03:47:05;;;;;;;9.20;4.90;;;5.10;99.90;;;;;;5030116;28;20038;-87
2022/12/07 03:49:41;;;;;;;7.53;4.40;;;5.10;99.90;;;;;;5030237;28;20030;-87
2022/12/07 03:52:22;;;;;;;10.50;4.68;;;5.10;99.90;;;;;;5030274;28;20121;-87
2022/12/07 03:55:10;;;;;;;10.32;5.45;;;5.10;99.90;;;;;;5030335;28;20085;-87
2022/12/07 03:57:38;;;;;;;8.05;4.70;;;5.10;99.90;;;;;;5030928;28;20080;-90
2022/12/07 04:00:06;;;;;;;9.55;4.78;;;5.10;99.90;;;;;;5032091;28;20014;-89
2022/12/07 04:02:32;;;;;;;9.45;4.95;;;5.10;99.90;;;;;;5036699;28;20059;-90
2022/12/07 04:04:58;;;;;;;11.95;5.18;;;5.10;99.90;;;;;;5034874;28;20021;-89
2022/12/07 04:07:25;;;;;;;10.68;4.85;;;5.10;99.90;;;;;;5034591;28;20022;-90
2022/12/07 04:09:51;;;;;;;11.88;4.95;;;5.10;99.90;;;;;;5035660;28;20052;-90
2022/12/07 04:12:17;;;;;;;9.80;5.35;;;5.10;99.90;;;;;;5034650;28;20538;-90
2022/12/07 04:14:42;;;;;;;10.40;4.90;;;5.10;99.90;;;;;;5033232;28;20103;-84
2022/12/07 04:17:08;;;;;;;11.65;5.30;;;5.10;99.90;;;;;;5016256;28;20034;-84
2022/12/07 04:19:34;;;;;;;10.80;5.07;;;5.10;99.90;;;;;;5033121;28;20095;-83
2022/12/07 04:22:04;;;;;;;10.38;5.13;;;5.10;99.90;;;;;;5016033;28;20033;-83
2022/12/07 04:24:30;;;;;;;10.60;5.03;;;5.10;99.90;;;;;;5032470;28;20030;-83
2022/12/07 04:26:56;;;;;;;7.68;5.20;;;5.10;99.90;;;;;;5016244;28;20033;-83
2022/12/07 04:29:22;;;;;;;11.32;5.38;;;5.10;99.90;;;;;;5032345;28;20021;-83
2022/12/07 04:31:48;;;;;;;15.38;5.50;;;5.10;99.90;;;;;;5032994;28;20026;-87
2022/12/07 04:34:15;;;;;;;7.15;4.40;;;5.10;99.90;;;;;;5032296;28;20032;-86
2022/12/07 04:36:41;;;;;;;11.55;5.45;;;5.10;99.90;;;;;;5033132;28;20071;-86
2022/12/07 04:39:09;;;;;;;11.38;6.18;;;5.10;99.90;;;;;;5032955;28;20374;-87
2022/12/07 04:41:35;;;;;;;12.10;6.05;;;5.10;99.90;;;;;;5032683;28;20041;-86
2022/12/07 04:44:04;;;;;;;10.82;5.82;;;5.00;99.90;;;;;;5032897;28;20029;-86
2022/12/07 04:46:31;;;;;;;11.27;5.70;;;5.00;99.90;;;;;;5032837;28;20025;-84
2022/12/07 04:48:57;;;;;;;9.95;5.70;;;5.00;99.90;;;;;;5032595;28;20471;-83
2022/12/07 04:51:26;;;;;;;10.18;5.57;;;5.00;99.90;;;;;;5032225;28;20497;-84
2022/12/07 04:53:52;;;;;;;9.60;5.57;;;5.00;99.90;;;;;;5032043;28;20025;-83
2022/12/07 04:56:18;;;;;;;13.63;5.32;;;5.00;99.90;;;;;;5032340;28;20114;-83
2022/12/07 04:58:46;;;;;;;10.93;5.63;;;5.00;99.90;;;;;;5032149;28;20027;-84
2022/12/07 05:01:13;;;;;;;11.02;5.90;;;5.00;99.90;;;;;;5032063;28;20021;-84
2022/12/07 05:03:46;;;;;;;10.70;5.10;;;5.00;99.90;;;;;;5032163;28;20433;-86
2022/12/07 05:06:12;;;;;;;15.18;5.47;;;5.00;99.90;;;;;;5016156;28;20029;-87
2022/12/07 05:08:38;;;;;;;10.35;5.30;;;5.00;99.90;;;;;;5032554;28;20030;-86
2022/12/07 05:11:05;;;;;;;14.55;5.63;;;5.00;99.90;;;;;;5016244;28;20033;-86
2022/12/07 05:13:31;;;;;;;11.50;5.28;;;5.00;99.90;;;;;;5015909;28;20026;-86
2022/12/07 05:15:57;;;;;;;9.63;4.72;;;5.00;99.90;;;;;;5016127;28;20038;-86
2022/12/07 05:18:23;;;;;;;10.35;5.22;;;5.00;99.90;;;;;;5016319;28;20513;-86
2022/12/07 05:20:50;;;;;;;11.85;5.32;;;5.00;99.90;;;;;;5016409;28;20021;-86
2022/12/07 05:23:17;;;;;;;10.48;4.60;;;5.00;99.90;;;;;;5032622;28;20502;-86
2022/12/07 05:25:43;;;;;;;14.55;5.18;;;5.00;99.90;;;;;;5016173;28;20029;-87
2022/12/07 05:28:09;;;;;;;14.15;5.82;;;4.90;99.90;;;;;;5032559;28;20044;-86
2022/12/07 05:30:35;;;;;;;10.32;5.28;;;4.90;99.90;;;;;;5032438;28;20030;-86
2022/12/07 05:33:00;;;;;;;11.45;4.63;;;4.90;99.90;;;;;;5012441;28;20549;-87
2022/12/07 05:35:26;;;;;;;11.48;4.22;;;4.90;99.90;;;;;;5029320;28;20026;-86
2022/12/07 05:37:52;;;;;;;12.40;4.60;;;4.90;99.90;;;;;;5030607;28;20026;-89
2022/12/07 05:40:18;;;;;;;10.80;4.85;;;4.90;99.90;;;;;;5013864;28;20042;-89
2022/12/07 05:42:44;;;;;;;10.23;4.38;;;4.90;99.90;;;;;;5029923;28;20029;-89
2022/12/07 05:45:10;;;;;;;11.68;5.03;;;4.90;99.90;;;;;;5031448;28;20030;-89
2022/12/07 05:47:36;;;;;;;12.35;4.93;;;4.90;99.90;;;;;;5000467;28;20072;-89
2022/12/07 05:50:03;;;;;;;13.65;4.93;;;4.90;99.90;;;;;;5000345;28;20018;-89
2022/12/07 05:52:29;;;;;;;9.18;4.65;;;4.80;99.90;;;;;;5033366;28;20036;-88
2022/12/07 05:54:55;;;;;;;16.00;5.55;;;4.90;99.90;;;;;;5003517;28;20116;-86
2022/12/07 05:57:20;;;;;;;11.60;4.80;;;4.80;99.90;;;;;;5035459;28;20025;-86
2022/12/07 05:59:46;;;;;;;9.90;4.28;;;4.80;99.90;;;;;;5035382;28;20417;-87
2022/12/07 06:02:14;;;;;;;11.30;4.20;;;4.80;99.90;;;;;;5035546;28;20406;-86
2022/12/07 06:04:42;;;;;;;12.23;4.50;;;4.80;99.90;;;;;;5035112;28;20034;-85
2022/12/07 06:07:09;;;;;;;9.35;4.05;;;4.80;99.90;;;;;;5017233;28;20485;-86
2022/12/07 06:09:35;;;;;;;8.02;3.80;;;4.80;99.90;;;;;;4998767;28;20153;-87
2022/12/07 06:14:46;;;;;;;9.70;3.95;;;4.80;99.90;;;;;;5035785;28;20036;-87
2022/12/07 06:17:13;;;;;;;9.05;3.97;;;4.80;99.90;;;;;;5019306;28;20030;-87
2022/12/07 06:19:39;;;;;;;11.98;3.95;;;4.80;99.90;;;;;;5034756;28;20025;-87
2022/12/07 06:22:05;;;;;;;11.30;4.13;;;4.70;99.90;;;;;;5034999;28;20029;-85
2022/12/07 06:24:32;;;;;;;10.85;4.70;;;4.70;99.90;;;;;;5029191;28;20052;-86
2022/12/07 06:26:58;;;;;;;10.05;4.18;;;4.80;99.90;;;;;;5016312;28;20533;-89
2022/12/07 06:29:24;;;;;;;8.07;3.97;;;4.70;99.90;;;;;;4998645;28;20053;-89
2022/12/07 06:31:49;;;;;;;12.77;4.78;;;4.70;99.90;;;;;;5015514;28;20030;-90
2022/12/07 06:34:18;;;;;;;13.57;3.60;;;4.70;99.90;;;;;;4999046;28;20026;-89
2022/12/07 06:36:44;;;;;;;8.85;3.63;;;4.70;99.90;;;;;;5015700;28;20080;-89
2022/12/07 06:39:29;;;;;;;8.65;3.97;;;4.70;99.90;;;;;;5015020;28;20056;-89
2022/12/07 06:41:55;;;;;;;9.50;3.67;;;4.70;99.90;;;;;;5016006;28;20047;-89
2022/12/07 06:44:22;;;;;;;8.52;3.88;;;4.70;99.90;;;;;;5015544;28;20105;-85
2022/12/07 06:46:48;;;;;;;12.82;3.60;;;4.70;99.90;;;;;;4998496;28;20398;-85
2022/12/07 06:49:15;;;;;;;11.00;3.38;;;4.70;99.90;;;;;;5014555;28;20064;-85
2022/12/07 06:51:43;;;;;;;11.25;4.35;;;4.70;99.90;;;;;;5014765;28;20021;-86
2022/12/07 06:54:10;;;;;;;9.10;3.63;;;4.70;99.90;;;;;;5014724;28;20379;-86
2022/12/07 06:56:37;;;;;;;10.90;3.63;;;4.70;99.90;;;;;;4998052;28;20068;-86
2022/12/07 06:59:03;;;;;;;12.45;3.70;;;4.60;99.90;;;;;;5014595;28;20030;-85
2022/12/07 07:01:29;;;;;;;10.68;3.35;;;4.70;99.90;;;;;;5014311;28;20379;-83
2022/12/07 07:03:55;;;;;;;9.07;2.90;;;4.60;99.90;;;;;;4998227;28;20030;-83
2022/12/07 07:06:20;;;;;;;10.52;4.35;;;4.60;99.90;;;;;;4998297;28;20034;-82
2022/12/07 07:08:46;;;;;;;11.52;4.97;;;4.60;99.90;;;;;;4999511;28;20033;-88
2022/12/07 07:11:13;;;;;;;8.25;3.78;;;4.60;99.90;;;;;;5001575;28;20111;-89
2022/12/07 07:13:39;;;;;;;11.27;2.78;;;4.60;99.90;;;;;;5015891;28;20030;-89
2022/12/07 07:16:05;;;;;;;11.25;4.00;;;4.60;99.90;;;;;;5015933;28;20026;-89
2022/12/07 07:18:31;;;;;;;12.75;3.38;;;4.60;99.90;;;;;;5014550;28;20026;-86
2022/12/07 07:20:57;;;;;;;10.10;3.13;;;4.60;99.90;;;;;;4997675;28;20108;-86
2022/12/07 07:26:45;;;;;;;13.48;2.78;;;4.60;99.90;;;;;;5016051;28;20389;-85
2022/12/07 07:29:10;;;;;;;8.52;2.92;;;4.60;99.90;;;;;;4997348;28;20113;-85
2022/12/07 07:31:37;;;;;;;7.88;2.72;;;4.60;99.90;;;;;;5014867;28;20057;-86
2022/12/07 07:34:02;;;;;;;9.43;2.95;;;4.60;99.90;;;;;;4998210;28;20018;-86
2022/12/07 07:36:28;;;;;;;8.70;2.90;;;4.50;99.90;;;;;;5014741;28;20571;-85
2022/12/07 07:38:54;;;;;;;9.15;3.38;;;4.60;99.90;;;;;;4998455;28;20486;-85
2022/12/07 07:41:19;;;;;;;9.07;2.80;;;4.60;99.90;;;;;;5014181;28;20046;-85
2022/12/07 07:44:04;;;;;;;11.52;2.83;;;4.60;99.90;;;;;;5014656;28;20058;-86
2022/12/07 07:46:30;;;;;;;8.30;2.63;;;4.50;99.90;;;;;;5014580;28;20034;-86
2022/12/07 07:48:55;;;;;;;14.95;2.85;;;4.50;99.90;;;;;;5016470;28;20092;-86
2022/12/07 07:51:21;;;;;;;5.88;2.25;;;4.50;99.90;;;;;;4998074;28;20026;-86
2022/12/07 07:56:23;;;;;;;9.85;2.70;;;4.50;99.90;;;;;;5014420;28;20053;-91
2022/12/07 07:59:22;;;;;;;;;;;;;;;;;;;;;
2022/12/07 08:01:54;;;;;;;8.73;2.67;;;4.50;99.90;;;;;;5017756;28;20454;-89
2022/12/07 08:04:29;;;;;;;7.15;2.65;;;4.50;99.90;;;;;;4999350;28;20061;-91
2022/12/07 08:06:56;;;;;;;5.63;2.38;;;4.40;99.90;;;;;;4998890;28;20026;-90
2022/12/07 08:09:31;;;;;;;11.02;2.97;;;4.50;99.90;;;;;;4998110;28;20033;-89
2022/12/07 08:12:06;;;;;;;6.38;2.60;;;4.40;99.90;;;;;;4999638;28;20030;-90
2022/12/07 08:14:43;;;;;;;7.50;3.22;;;4.50;99.90;;;;;;5000540;28;20125;-89
2022/12/07 08:17:17;;;;;;;11.38;3.15;;;4.40;99.90;;;;;;5014944;28;20025;-88
2022/12/07 08:19:44;;;;;;;6.03;2.90;;;4.40;99.90;;;;;;5000600;28;20022;-90
2022/12/07 08:22:38;;;;;;;10.32;2.60;;;4.50;99.90;;;;;;5001384;28;20090;-89
2022/12/07 08:25:29;;;;;;;9.95;3.53;;;4.40;99.90;;;;;;5016957;28;20183;-89
2022/12/07 08:30:51;;;;;;;7.85;2.38;;;4.50;99.90;;;;;;5035354;28;20033;-89
2022/12/07 08:33:17;;;;;;;12.48;3.00;;;4.50;99.90;;;;;;5011675;28;20024;-88
2022/12/07 08:35:50;;;;;;;6.82;2.38;;;4.50;99.90;;;;;;5007409;28;20053;-89
2022/12/07 08:38:20;;;;;;;8.60;2.90;;;4.50;99.90;;;;;;5020071;28;20082;-89
2022/12/07 08:40:55;;;;;;;11.07;2.90;;;4.60;99.90;;;;;;5017586;28;20530;-88
2022/12/07 08:43:39;;;;;;;8.57;2.42;;;4.60;99.90;;;;;;5013342;28;20034;-88
2022/12/07 08:46:46;;;;;;;10.98;3.05;;;4.60;99.90;;;;;;4999854;28;20038;-88
2022/12/07 08:49:52;;;;;;;;;;;;;;;;;;;;;
2022/12/07 08:52:22;;;;;;;9.07;2.55;;;4.60;99.90;;;;;;5020276;28;20109;-89
2022/12/07 08:58:19;;;;;;;7.18;2.45;;;4.60;99.90;;;;;;5012647;28;20060;-88
2022/12/07 09:01:03;;;;;;;11.40;4.15;;;4.70;99.90;;;;;;4997970;28;20398;-88
2022/12/07 09:03:46;;;;;;;14.43;4.60;;;4.70;99.90;;;;;;4998204;28;20057;-89
2022/12/07 09:09:26;;;;;;;9.55;3.00;;;4.70;99.90;;;;;;5015987;28;20072;-90
2022/12/07 09:12:04;;;;;;;;;;;;;;;;;;;;;
2022/12/07 09:14:53;;;;;;;14.10;3.40;;;4.80;99.90;;;;;;5014169;28;20037;-87
2022/12/07 09:17:29;;;;;;;12.25;3.90;;;4.80;99.90;;;;;;5015527;28;20064;-88
2022/12/07 09:20:00;;;;;;;12.85;3.13;;;4.80;99.90;;;;;;4998335;28;20049;-88
2022/12/07 09:22:31;;;;;;;9.95;3.22;;;4.90;99.90;;;;;;5017825;28;20529;-92
2022/12/07 09:25:21;;;;;;;15.98;8.60;;;4.90;99.90;;;;;;5001229;28;20478;-88
2022/12/07 09:27:54;;;;;;;20.42;8.50;;;4.90;99.90;;;;;;5000217;28;20042;-88
2022/12/07 09:30:33;;;;;;;12.80;4.15;;;4.90;99.90;;;;;;4998900;28;20030;-88
2022/12/07 09:36:15;;;;;;;;;;;4.90;99.90;;;;;;5009213;28;20038;-90
2022/12/07 09:38:41;;;;;;;8.95;3.00;;;5.00;99.90;;;;;;5000630;28;20376;-86
2022/12/07 09:41:16;;;;;;;11.90;3.88;;;5.00;99.90;;;;;;5000073;28;20025;-86
2022/12/07 09:44:04;;;;;;;14.35;3.95;;;5.00;99.90;;;;;;5012966;28;20029;-88
2022/12/07 09:46:36;;;;;;;13.10;4.25;;;5.10;99.90;;;;;;5016979;28;20026;-85
2022/12/07 09:49:14;;;;;;;11.98;3.00;;;5.10;99.90;;;;;;4999780;28;20021;-85
2022/12/07 09:51:43;;;;;;;13.35;3.50;;;5.20;99.90;;;;;;5000170;28;20037;-87
2022/12/07 09:54:16;;;;;;;9.18;2.97;;;5.20;99.90;;;;;;5000249;28;20026;-86
2022/12/07 09:56:52;;;;;;;12.88;3.10;;;5.30;99.90;;;;;;5002084;28;20037;-87
2022/12/07 09:59:18;;;;;;;14.68;3.25;;;5.30;99.90;;;;;;4999960;28;20054;-87
2022/12/07 10:01:49;;;;;;;9.88;3.08;;;5.30;99.90;;;;;;5000183;28;20486;-86
2022/12/07 10:04:44;;;;;;;12.38;3.28;;;5.40;99.90;;;;;;4999819;28;20026;-87
2022/12/07 10:07:12;;;;;;;12.10;3.00;;;5.40;99.90;;;;;;5000169;28;20029;-86
2022/12/07 10:09:38;;;;;;;11.68;3.15;;;5.40;99.90;;;;;;5000251;28;20030;-87
2022/12/07 10:12:19;;;;;;;10.70;2.55;;;5.40;99.90;;;;;;5010828;28;20021;-88
2022/12/07 10:15:01;;;;;;;6.97;2.30;;;5.40;99.90;;;;;;5011029;28;20034;-87
2022/12/07 10:17:44;;;;;;;11.60;3.15;;;5.50;99.90;;;;;;5005962;28;20030;-88
2022/12/07 10:20:25;;;;;;;10.50;2.63;;;5.50;99.90;;;;;;5015959;28;20033;-85
2022/12/07 10:23:16;;;;;;;9.73;2.63;;;5.50;99.90;;;;;;5027401;28;20462;-87
2022/12/07 10:25:42;;;;;;;;;;;5.60;99.90;;;;;;5001157;28;20018;-86
2022/12/07 10:28:15;;;;;;;10.52;2.70;;;5.60;99.90;;;;;;5017498;28;19913;-86
2022/12/07 10:31:17;;;;;;;11.40;2.70;;;5.70;99.90;;;;;;5016225;28;20022;-86
2022/12/07 10:34:03;;;;;;;12.18;2.72;;;5.70;99.90;;;;;;5000244;28;20030;-86
2022/12/07 10:36:41;;;;;;;7.22;2.40;;;5.70;99.90;;;;;;5017295;28;20382;-86
2022/12/07 10:39:21;;;;;;;12.20;3.47;;;5.80;99.90;;;;;;4983618;28;20041;-85
2022/12/07 10:42:06;;;;;;;10.35;2.70;;;5.80;99.90;;;;;;4983725;28;20030;-86
2022/12/07 10:51:32;;;;;;;8.25;2.45;;;5.90;99.90;;;;;;5016646;28;20156;-86
2022/12/07 10:54:31;;;;;;;13.38;3.15;;;6.00;99.90;;;;;;4998814;28;20022;-85
2022/12/07 10:56:59;;;;;;;9.40;3.10;;;6.00;99.90;;;;;;4993601;28;20018;-85
2022/12/07 10:59:27;;;;;;;9.95;2.45;;;6.10;99.90;;;;;;5015568;28;20030;-89
2022/12/07 11:02:31;;;;;;;8.32;2.92;;;6.10;99.90;;;;;;5024996;28;20049;-88
2022/12/07 11:05:21;;;;;;;7.18;2.70;;;6.20;99.90;;;;;;5014935;28;20454;-87
2022/12/07 11:07:49;;;;;;;10.98;2.45;;;6.30;99.90;;;;;;5014533;28;20014;-88
2022/12/07 11:10:39;;;;;;;8.85;2.63;;;6.40;99.90;;;;;;5028619;28;20036;-88
2022/12/07 11:13:29;;;;;;;10.38;2.83;;;6.40;99.90;;;;;;5035905;28;20029;-90
2022/12/07 11:16:30;;;;;;;5.13;2.10;;;6.50;99.90;;;;;;5020320;28;20072;-88
2022/12/07 11:19:45;;;;;;;7.35;2.40;;;6.60;99.90;;;;;;5014692;28;20112;-86
2022/12/07 11:22:30;;;;;;;7.07;2.40;;;6.60;99.90;;;;;;5014050;28;20034;-88
2022/12/07 11:25:37;;;;;;;8.43;2.97;;;6.60;99.90;;;;;;5030938;28;20080;-88
2022/12/07 11:28:22;;;;;;;11.30;2.40;;;6.70;99.90;;;;;;5007054;28;20034;-88
2022/12/07 11:31:27;;;;;;;11.15;2.42;;;6.70;99.90;;;;;;5014157;28;20034;-88
2022/12/07 11:34:24;;;;;;;7.97;2.53;;;6.70;99.90;;;;;;5014551;28;20033;-88
2022/12/07 11:37:14;;;;;;;;;;;;;;;;;;;;;
2022/12/07 11:39:52;;;;;;;7.22;2.55;;;6.80;99.90;;;;;;5015355;28;20034;-88
2022/12/07 11:42:49;;;;;;;;;;;;;;;;;;;;;
2022/12/07 11:45:40;;;;;;;8.55;1.95;;;6.90;99.90;;;;;;5015439;28;20129;-88
2022/12/07 11:48:34;;;;;;;7.80;1.95;;;7.00;99.90;;;;;;5013429;28;20490;-88
2022/12/07 11:51:06;;;;;;;7.45;1.90;;;7.10;99.90;;;;;;5014614;28;20065;-88
2022/12/07 11:54:05;;;;;;;7.10;2.17;;;7.20;99.90;;;;;;5015392;28;20198;-88
2022/12/07 11:56:44;;;;;;;9.45;2.15;;;7.20;99.90;;;;;;5011753;28;20088;-89
2022/12/07 11:59:22;;;;;;;12.50;2.20;;;7.20;99.90;;;;;;4971182;28;20054;-89
2022/12/07 12:02:05;;;;;;;;;;;;;;;;;;;;;
2022/12/07 12:04:52;;;;;;;9.88;1.80;;;7.30;99.90;;;;;;5014806;28;20482;-88
2022/12/07 12:08:03;;;;;;;7.50;1.92;;;7.40;99.90;;;;;;5008966;28;20033;-89
2022/12/07 12:10:58;;;;;;;8.83;2.23;;;7.60;99.90;;;;;;5014070;28;20037;-90
2022/12/07 12:13:49;;;;;;;7.80;1.95;;;7.70;99.90;;;;;;4992217;28;20288;-90
2022/12/07 12:17:00;;;;;;;;;;;;;;;;;;;;;
2022/12/07 12:20:20;;;;;;;5.75;2.13;;;7.80;99.90;;;;;;5010764;28;20183;-88
2022/12/07 12:23:21;;;;;;;8.40;1.75;;;7.80;99.90;;;;;;5013826;28;20025;-86
2022/12/07 12:25:56;;;;;;;8.05;2.05;;;7.90;99.90;;;;;;4985094;28;20034;-91
2022/12/07 12:28:33;;;;;;;10.73;1.58;;;7.80;99.90;;;;;;4998991;28;20030;-89
2022/12/07 12:31:26;;;;;;;7.35;2.38;;;7.80;99.90;;;;;;5004234;28;20030;-90
2022/12/07 12:33:53;;;;;;;8.75;1.52;;;7.80;99.90;;;;;;4985977;28;20061;-89
2022/12/07 12:36:35;;;;;;;8.70;1.55;;;7.90;99.90;;;;;;5023421;28;20073;-84
2022/12/07 12:39:06;;;;;;;7.57;1.63;;;7.90;99.90;;;;;;5011521;28;20048;-86
2022/12/07 12:41:45;;;;;;;;;;;;;;;;;;;;;
2022/12/07 12:44:17;;;;;;;5.50;1.50;;;7.90;99.90;;;;;;5018893;28;20081;-86
2022/12/07 12:47:06;;;;;;;9.32;1.80;;;7.90;99.90;;;;;;5013604;28;20065;-87
2022/12/07 12:50:15;;;;;;;8.10;1.88;;;8.00;99.90;;;;;;5016836;28;20033;-88
2022/12/07 12:52:44;;;;;;;6.55;1.45;;;8.10;99.90;;;;;;4995639;28;20103;-87
2022/12/07 12:55:20;;;;;;;;;;;;;;;;;;;;;
2022/12/07 12:57:58;;;;;;;11.60;3.88;;;8.20;99.90;;;;;;5017591;28;20509;-87
2022/12/07 13:00:41;;;;;;;13.55;4.28;;;8.20;99.90;;;;;;5001216;28;20072;-87
2022/12/07 13:03:34;;;;;;;16.45;5.88;;;8.30;99.90;;;;;;5017765;28;20033;-87
2022/12/07 13:06:26;;;;;;;16.90;6.30;;;8.40;99.90;;;;;;4999962;28;20096;-87
2022/12/07 13:08:58;;;;;;;20.42;7.30;;;8.40;99.90;;;;;;5014538;28;20034;-87
2022/12/07 13:11:44;;;;;;;17.15;5.63;;;8.40;99.90;;;;;;4998858;28;20026;-87
2022/12/07 13:14:40;;;;;;;17.08;4.85;;;8.50;99.90;;;;;;5000139;28;20026;-86
2022/12/07 13:17:34;;;;;;;10.80;3.88;;;8.60;99.90;;;;;;5017579;28;20454;-87
2022/12/07 13:20:02;;;;;;;9.23;3.50;;;8.60;99.90;;;;;;5000629;28;20042;-86
2022/12/07 13:22:40;;;;;;;;;;;;;;;;;;;;;
2022/12/07 13:25:25;;;;;;;8.30;2.65;;;8.70;99.90;;;;;;5016867;28;20032;-86
2022/12/07 13:28:28;;;;;;;10.25;3.17;;;8.80;99.90;;;;;;4996211;28;20038;-90
2022/12/07 13:31:13;;;;;;;11.95;2.80;;;8.80;99.90;;;;;;4966102;28;20045;-94
2022/12/07 13:33:39;;;;;;;11.48;3.30;;;8.90;99.90;;;;;;4999159;28;20026;-86
2022/12/07 13:36:17;;;;;;;11.88;4.18;;;8.90;99.90;;;;;;5016662;28;20090;-87
2022/12/07 13:38:51;;;;;;;10.20;4.53;;;9.00;99.90;;;;;;5016811;28;20030;-87
2022/12/07 13:41:36;;;;;;;14.35;3.97;;;9.00;99.90;;;;;;4999259;28;20032;-88
2022/12/07 13:44:10;;;;;;;10.43;3.45;;;9.00;99.90;;;;;;5000579;28;20022;-88
2022/12/07 13:47:11;;;;;;;10.75;3.42;;;9.10;99.90;;;;;;5020461;28;20077;-92
2022/12/07 13:49:49;;;;;;;9.70;3.58;;;9.00;99.90;;;;;;5022784;28;20037;-89
2022/12/07 13:52:25;;;;;;;10.75;2.53;;;9.00;99.90;;;;;;5008216;28;20442;-87
2022/12/07 13:55:16;;;;;;;10.45;3.08;;;9.00;99.90;;;;;;4998950;28;20061;-87
2022/12/07 13:57:44;;;;;;;11.55;2.72;;;9.00;99.90;;;;;;4995666;28;20050;-88
2022/12/07 14:00:24;;;;;;;10.13;3.38;;;9.00;99.90;;;;;;5009263;28;20391;-87
2022/12/07 14:02:59;;;;;;;8.90;1.83;;;8.90;99.90;;;;;;4995475;28;20037;-87
2022/12/07 14:05:31;;;;;;;9.30;1.85;;;8.90;99.90;;;;;;4999674;28;20026;-87
2022/12/07 14:08:04;;;;;;;7.55;1.90;;;8.90;99.90;;;;;;4996083;28;20050;-86
2022/12/07 14:10:49;;;;;;;;;;;;;;;;;;;;;
2022/12/07 14:13:58;;;;;;;7.68;1.63;;;8.90;99.90;;;;;;4994046;28;20037;-86